createdAt,value
2023-01-12T00:02:32.843Z,16.67
2023-01-12T00:05:20.709Z,13.53
2023-01-12T00:08:18.054Z,8.50
2023-01-12T00:11:14.106Z,15.43
2023-01-12T00:14:08.984Z,15.10
2023-01-12T00:16:57.449Z,10.88
2023-01-12T00:19:46.055Z,16.80
2023-01-12T00:22:42.357Z,22.23
2023-01-12T00:25:29.961Z,16.73
2023-01-12T00:31:28.476Z,13.55
2023-01-12T00:34:20.116Z,20.33
2023-01-12T00:37:08.361Z,10.85
2023-01-12T00:40:02.602Z,10.70
2023-01-12T00:43:11.269Z,14.52
2023-01-12T00:46:10.319Z,17.73
2023-01-12T00:49:00.299Z,14.55
2023-01-12T00:51:55.537Z,8.82
2023-01-12T00:54:55.050Z,15.50
2023-01-12T00:57:50.324Z,15.05
2023-01-12T01:00:38.365Z,13.73
2023-01-12T01:03:36.583Z,18.38
2023-01-12T01:06:32.706Z,17.63
2023-01-12T01:09:21.074Z,15.05
2023-01-12T01:12:17.611Z,16.55
2023-01-12T01:15:05.998Z,16.38
2023-01-12T01:17:53.860Z,22.65
2023-01-12T01:20:47.477Z,21.52
2023-01-12T01:23:40.245Z,15.13
2023-01-12T01:26:36.675Z,19.48
2023-01-12T01:29:24.701Z,14.15
2023-01-12T01:32:12.790Z,14.95
2023-01-12T01:35:04.423Z,18.45
2023-01-12T01:37:54.634Z,15.23
2023-01-12T01:40:43.981Z,12.88
2023-01-12T01:43:50.652Z,12.73
2023-01-12T01:46:57.487Z,13.82
2023-01-12T01:49:54.380Z,10.32
2023-01-12T01:52:47.900Z,10.35
2023-01-12T01:55:51.815Z,21.02
2023-01-12T01:58:44.619Z,18.25
2023-01-12T02:01:33.165Z,18.25
2023-01-12T02:04:21.589Z,19.65
2023-01-12T02:07:12.483Z,17.00
2023-01-12T02:10:02.160Z,11.60
2023-01-12T02:13:12.368Z,17.58
2023-01-12T02:16:35.396Z,17.88
2023-01-12T02:19:52.661Z,15.55
2023-01-12T02:23:21.111Z,20.10
2023-01-12T02:27:07.028Z,15.85
2023-01-12T02:29:59.649Z,13.27
2023-01-12T02:33:08.011Z,18.88
2023-01-12T02:36:16.537Z,13.10
2023-01-12T02:39:38.933Z,16.77
2023-01-12T02:43:21.461Z,10.65
2023-01-12T02:46:28.385Z,18.48
2023-01-12T02:49:34.692Z,14.75
2023-01-12T02:52:40.268Z,13.05
2023-01-12T02:55:38.021Z,14.77
2023-01-12T03:01:38.320Z,22.40
2023-01-12T03:04:40.101Z,18.30
2023-01-12T03:08:02.516Z,16.05
2023-01-12T03:11:18.033Z,14.35
2023-01-12T03:14:26.267Z,15.48
2023-01-12T03:18:00.696Z,19.17
2023-01-12T03:21:29.600Z,23.93
2023-01-12T03:24:28.501Z,14.75
2023-01-12T03:27:36.647Z,10.43
2023-01-12T03:31:31.346Z,17.30
2023-01-12T03:34:52.750Z,13.90
2023-01-12T03:37:47.232Z,15.27
2023-01-12T03:40:59.238Z,14.57
2023-01-12T03:44:02.894Z,11.80
2023-01-12T03:47:05.303Z,14.75
2023-01-12T03:50:27.992Z,18.33
2023-01-12T03:53:20.235Z,15.52
2023-01-12T03:56:11.573Z,10.98
2023-01-12T03:59:04.460Z,16.88
2023-01-12T04:01:58.002Z,16.48
2023-01-12T04:04:46.181Z,10.73
2023-01-12T04:07:39.847Z,18.23
2023-01-12T04:10:41.978Z,21.42
2023-01-12T04:13:29.826Z,15.82
2023-01-12T04:16:17.969Z,16.17
2023-01-12T04:19:15.963Z,13.32
2023-01-12T04:22:32.739Z,14.60
2023-01-12T04:25:24.744Z,19.90
2023-01-12T04:28:13.327Z,13.18
2023-01-12T04:31:19.225Z,17.13
2023-01-12T04:34:09.312Z,16.10
2023-01-12T04:37:25.409Z,18.58
2023-01-12T04:40:18.063Z,16.88
2023-01-12T04:43:08.536Z,11.10
2023-01-12T04:46:18.905Z,20.80
2023-01-12T04:49:13.009Z,13.25
2023-01-12T04:54:58.495Z,16.38
2023-01-12T04:57:51.503Z,14.98
2023-01-12T05:00:46.308Z,17.23
2023-01-12T05:03:34.933Z,9.98
2023-01-12T05:06:24.148Z,14.52
2023-01-12T05:09:43.322Z,12.82
2023-01-12T05:12:32.422Z,15.82
2023-01-12T05:15:22.931Z,14.32
2023-01-12T05:18:13.945Z,9.48
2023-01-12T05:21:02.367Z,17.52
2023-01-12T05:24:07.082Z,8.07
2023-01-12T05:26:59.976Z,11.18
2023-01-12T05:29:48.646Z,18.15
2023-01-12T05:33:05.733Z,14.65
2023-01-12T05:35:55.439Z,15.95
2023-01-12T05:38:44.355Z,10.73
2023-01-12T05:41:33.975Z,16.75
2023-01-12T05:44:24.545Z,17.00
2023-01-12T05:47:22.073Z,14.27
2023-01-12T05:50:15.625Z,18.27
2023-01-12T05:53:03.827Z,14.43
2023-01-12T05:59:49.046Z,15.68
2023-01-12T06:02:37.433Z,11.73
2023-01-12T06:05:27.231Z,15.60
2023-01-12T06:08:17.529Z,6.65
2023-01-12T06:11:31.266Z,13.95
2023-01-12T06:14:25.652Z,14.00
2023-01-12T06:17:18.720Z,13.63
2023-01-12T06:20:17.388Z,16.58
2023-01-12T06:23:05.809Z,12.30
2023-01-12T06:26:10.703Z,13.85
2023-01-12T06:29:06.051Z,14.70
2023-01-12T06:31:55.084Z,13.02
2023-01-12T06:34:48.739Z,13.45
2023-01-12T06:37:46.568Z,19.65
2023-01-12T06:40:34.453Z,13.65
2023-01-12T06:43:22.186Z,12.70
2023-01-12T06:46:10.284Z,19.63
2023-01-12T06:49:01.318Z,14.55
2023-01-12T06:51:51.641Z,17.92
2023-01-12T06:54:41.795Z,13.00
2023-01-12T06:57:36.927Z,14.95
2023-01-12T07:00:24.797Z,13.70
2023-01-12T07:03:24.199Z,17.02
2023-01-12T07:06:14.672Z,12.57
2023-01-12T07:09:13.065Z,20.27
2023-01-12T07:12:01.118Z,14.60
2023-01-12T07:14:49.566Z,11.93
2023-01-12T07:17:42.505Z,18.13
2023-01-12T07:21:02.021Z,13.60
2023-01-12T07:27:01.682Z,18.83
2023-01-12T07:30:18.201Z,14.15
2023-01-12T07:33:23.335Z,17.08
2023-01-12T07:36:24.914Z,19.95
2023-01-12T07:39:16.144Z,21.98
2023-01-12T07:42:24.845Z,24.02
2023-01-12T07:45:15.627Z,17.65
2023-01-12T07:48:07.495Z,15.07
2023-01-12T07:51:02.676Z,16.60
2023-01-12T07:53:53.242Z,15.27
2023-01-12T07:56:56.334Z,17.70
2023-01-12T07:59:51.907Z,16.60
2023-01-12T08:02:57.592Z,17.90
2023-01-12T08:06:04.572Z,16.98
2023-01-12T08:09:09.914Z,11.75
2023-01-12T08:12:27.731Z,14.88
2023-01-12T08:22:39.196Z,16.05
2023-01-12T08:32:47.744Z,15.02
2023-01-12T08:43:14.993Z,13.75
2023-01-12T08:46:08.760Z,11.60
2023-01-12T08:49:10.954Z,15.85
2023-01-12T08:52:02.360Z,10.77
2023-01-12T08:54:53.184Z,20.48
2023-01-12T08:57:44.133Z,12.88
2023-01-12T09:00:34.973Z,18.17
2023-01-12T09:03:26.640Z,14.27
2023-01-12T09:06:38.736Z,9.55
2023-01-12T09:09:32.066Z,7.70
2023-01-12T09:12:28.961Z,13.37
2023-01-12T09:15:18.837Z,13.48
2023-01-12T09:18:12.615Z,7.72
2023-01-12T09:21:11.814Z,6.70
2023-01-12T09:24:00.305Z,5.20
2023-01-12T09:27:00.556Z,8.93
2023-01-12T09:29:54.415Z,5.65
2023-01-12T09:32:47.591Z,6.80
2023-01-12T09:35:41.297Z,6.32
2023-01-12T09:38:41.366Z,4.85
2023-01-12T09:42:01.519Z,6.70
2023-01-12T09:45:12.339Z,7.47
2023-01-12T09:48:04.585Z,7.25
2023-01-12T09:51:05.146Z,8.02
2023-01-12T09:53:59.537Z,7.55
2023-01-12T09:57:37.727Z,10.10
2023-01-12T10:00:24.984Z,8.18
2023-01-12T10:03:42.129Z,5.35
2023-01-12T10:06:43.017Z,4.00
2023-01-12T10:09:42.794Z,8.40
2023-01-12T10:12:44.313Z,7.40
2023-01-12T10:15:57.805Z,6.57
2023-01-12T10:19:10.648Z,6.85
2023-01-12T10:22:08.292Z,5.97
2023-01-12T10:25:29.934Z,7.28
2023-01-12T10:28:34.228Z,9.50
2023-01-12T10:31:42.302Z,8.75
2023-01-12T10:35:09.735Z,8.98
2023-01-12T10:37:57.519Z,4.78
2023-01-12T10:44:16.775Z,4.43
2023-01-12T10:47:18.828Z,6.38
2023-01-12T10:50:32.810Z,3.88
2023-01-12T10:53:36.290Z,7.72
2023-01-12T10:56:35.055Z,3.97
2023-01-12T10:59:37.001Z,4.18
2023-01-12T11:02:31.768Z,5.60
2023-01-12T11:05:35.149Z,4.47
2023-01-12T11:08:29.279Z,10.68
2023-01-12T11:11:32.544Z,4.65
2023-01-12T11:14:38.965Z,6.80
2023-01-12T11:17:37.026Z,9.70
2023-01-12T11:20:30.575Z,6.18
2023-01-12T11:23:42.453Z,7.28
2023-01-12T11:26:51.116Z,6.90
2023-01-12T11:30:15.981Z,4.00
2023-01-12T11:33:30.988Z,4.95
2023-01-12T11:36:24.629Z,8.45
2023-01-12T11:39:24.190Z,4.20
2023-01-12T11:42:49.408Z,4.13
2023-01-12T11:45:55.042Z,5.75
2023-01-12T11:49:38.265Z,5.25
2023-01-12T11:52:27.607Z,3.75
2023-01-12T11:55:41.909Z,3.83
2023-01-12T11:58:47.697Z,4.60
2023-01-12T12:02:05.582Z,6.97
2023-01-12T12:05:27.332Z,2.25
2023-01-12T12:08:41.938Z,4.50
2023-01-12T12:14:50.254Z,3.72
2023-01-12T12:18:06.421Z,3.97
2023-01-12T12:21:32.509Z,6.78
2023-01-12T12:24:47.290Z,4.82
2023-01-12T12:28:16.459Z,4.45
2023-01-12T12:31:40.345Z,5.65
2023-01-12T12:34:59.050Z,4.57
2023-01-12T12:38:16.838Z,3.35
2023-01-12T12:41:26.684Z,3.53
2023-01-12T12:45:03.727Z,7.43
2023-01-12T12:48:18.245Z,3.13
2023-01-12T12:51:12.863Z,4.82
2023-01-12T12:54:17.513Z,3.85
2023-01-12T12:57:11.492Z,3.95
2023-01-12T13:00:04.228Z,2.72
2023-01-12T13:03:08.057Z,3.40
2023-01-12T13:06:17.132Z,4.68
2023-01-12T13:09:31.029Z,4.68
2023-01-12T13:12:33.903Z,2.93
2023-01-12T13:15:47.249Z,4.07
2023-01-12T13:19:05.709Z,4.38
2023-01-12T13:22:11.558Z,4.07
2023-01-12T13:25:13.092Z,2.63
2023-01-12T13:28:02.236Z,5.50
2023-01-12T13:30:54.524Z,5.75
2023-01-12T13:34:20.595Z,3.10
2023-01-12T13:37:41.789Z,4.13
2023-01-12T13:40:55.513Z,4.40
2023-01-12T13:44:06.180Z,3.40
2023-01-12T13:47:21.641Z,2.35
2023-01-12T13:50:18.788Z,1.80
2023-01-12T13:53:28.598Z,1.50
2023-01-12T13:56:26.263Z,5.00
2023-01-12T13:59:21.878Z,2.88
2023-01-12T14:02:22.632Z,3.30
2023-01-12T14:05:46.520Z,3.75
2023-01-12T14:08:52.264Z,1.23
2023-01-12T14:12:10.665Z,1.55
2023-01-12T14:15:47.480Z,1.23
2023-01-12T14:18:46.595Z,2.45
2023-01-12T14:21:58.504Z,1.83
2023-01-12T14:24:48.797Z,1.52
2023-01-12T14:27:36.558Z,1.20
2023-01-12T14:30:32.277Z,2.65
2023-01-12T14:33:23.630Z,2.50
2023-01-12T14:36:43.819Z,4.70
2023-01-12T14:39:43.494Z,1.92
2023-01-12T14:42:52.507Z,4.10
2023-01-12T14:46:25.276Z,3.92
2023-01-12T14:49:38.721Z,1.83
2023-01-12T14:52:33.932Z,2.42
2023-01-12T14:55:43.184Z,1.30
2023-01-12T14:58:38.363Z,2.15
2023-01-12T15:01:38.047Z,1.77
2023-01-12T15:04:26.257Z,1.45
2023-01-12T15:07:17.292Z,2.00
2023-01-12T15:10:29.633Z,1.52
2023-01-12T15:13:32.886Z,2.25
2023-01-12T15:16:39.286Z,0.75
2023-01-12T15:19:45.361Z,1.73
2023-01-12T15:22:51.165Z,0.60
2023-01-12T15:25:41.441Z,0.60
2023-01-12T15:28:30.292Z,0.90
2023-01-12T15:31:20.787Z,0.80
2023-01-12T15:34:11.405Z,0.70
2023-01-12T15:36:58.920Z,0.73
2023-01-12T15:39:47.049Z,0.90
2023-01-12T15:42:34.737Z,1.02
2023-01-12T15:45:30.708Z,1.85
2023-01-12T15:48:18.427Z,0.85
2023-01-12T15:51:06.134Z,0.68
2023-01-12T15:53:53.633Z,2.05
2023-01-12T15:56:41.431Z,0.85
2023-01-12T15:59:28.957Z,2.15
2023-01-12T16:02:27.465Z,1.25
2023-01-12T16:05:17.666Z,1.17
2023-01-12T16:19:49.629Z,1.92
2023-01-12T16:22:37.324Z,1.55
2023-01-12T16:25:26.448Z,1.00
2023-01-12T16:28:14.430Z,0.95
2023-01-12T16:31:09.432Z,1.33
2023-01-12T16:33:57.276Z,1.40
2023-01-12T16:36:45.211Z,1.38
2023-01-12T16:39:40.309Z,0.98
2023-01-12T16:42:31.861Z,1.27
2023-01-12T16:45:19.936Z,2.95
2023-01-12T16:48:39.859Z,1.00
2023-01-12T16:51:27.964Z,1.23
2023-01-12T16:54:23.769Z,1.63
2023-01-12T16:57:16.331Z,1.35
2023-01-12T17:00:08.185Z,1.67
2023-01-12T17:02:58.937Z,1.25
2023-01-12T17:05:48.954Z,1.98
2023-01-12T17:08:42.337Z,1.85
2023-01-12T17:11:33.580Z,1.40
2023-01-12T17:14:27.163Z,1.25
2023-01-12T17:17:15.325Z,0.82
2023-01-12T17:20:11.795Z,0.98
2023-01-12T17:23:02.115Z,1.55
2023-01-12T17:28:56.029Z,2.10
2023-01-12T17:35:19.167Z,1.30
2023-01-12T17:38:12.642Z,1.40
2023-01-12T17:41:00.650Z,1.10
2023-01-12T17:43:50.997Z,1.48
2023-01-12T17:47:12.633Z,1.40
2023-01-12T17:50:03.560Z,2.63
2023-01-12T17:52:57.567Z,1.15
2023-01-12T17:55:56.895Z,2.25
2023-01-12T17:58:50.732Z,2.65
2023-01-12T18:01:42.863Z,2.10
2023-01-12T18:05:09.005Z,2.03
2023-01-12T18:08:00.325Z,2.67
2023-01-12T18:10:53.511Z,5.28
2023-01-12T18:13:44.025Z,6.32
2023-01-12T18:16:32.281Z,4.13
2023-01-12T18:19:20.931Z,3.90
2023-01-12T18:22:11.895Z,2.72
2023-01-12T18:25:08.693Z,6.47
2023-01-12T18:27:58.857Z,1.88
2023-01-12T18:30:50.626Z,3.42
2023-01-12T18:33:41.156Z,2.70
2023-01-12T18:36:29.482Z,2.88
2023-01-12T18:39:23.745Z,4.65
2023-01-12T18:42:51.709Z,3.60
2023-01-12T18:45:39.756Z,6.53
2023-01-12T18:48:39.387Z,3.65
2023-01-12T18:51:45.767Z,2.75
2023-01-12T18:58:02.554Z,3.03
2023-01-12T19:01:03.496Z,4.50
2023-01-12T19:04:00.131Z,2.10
2023-01-12T19:17:25.050Z,1.70
2023-01-12T19:20:40.970Z,2.03
2023-01-12T19:24:00.200Z,4.63
2023-01-12T19:30:40.974Z,2.42
2023-01-12T19:49:44.961Z,4.47
2023-01-12T19:55:57.744Z,5.95
2023-01-12T19:59:30.823Z,1.52
2023-01-12T20:12:05.106Z,3.17
2023-01-12T20:14:58.892Z,1.92
2023-01-12T20:18:09.264Z,3.72
2023-01-12T20:24:13.292Z,4.15
2023-01-12T20:27:10.767Z,1.67
2023-01-12T20:30:07.811Z,1.48
2023-01-12T20:38:17.333Z,3.55
2023-01-12T20:41:15.084Z,2.70
2023-01-12T20:44:31.261Z,3.42
2023-01-12T20:50:27.044Z,3.70
2023-01-12T20:53:39.418Z,2.85
2023-01-12T21:00:40.062Z,2.95
2023-01-12T21:22:33.983Z,2.28
2023-01-12T21:28:30.036Z,3.45
2023-01-12T21:31:44.114Z,4.05
2023-01-12T21:38:12.002Z,3.78
2023-01-12T21:41:31.650Z,3.58
2023-01-12T21:45:06.092Z,2.85
2023-01-12T21:47:59.965Z,4.00
2023-01-12T21:50:53.307Z,4.40
2023-01-12T21:56:52.276Z,5.18
2023-01-12T21:59:42.721Z,4.07
2023-01-12T22:02:32.491Z,7.90
2023-01-12T22:05:26.176Z,8.52
2023-01-12T22:08:16.916Z,15.93
2023-01-12T22:11:10.467Z,4.63
2023-01-12T22:13:59.015Z,4.28
2023-01-12T22:16:47.224Z,4.47
2023-01-12T22:19:39.468Z,6.13
2023-01-12T22:22:28.509Z,4.25
2023-01-12T22:25:17.869Z,3.47
2023-01-12T22:28:15.953Z,2.85
2023-01-12T22:31:15.269Z,4.13
2023-01-12T22:34:05.539Z,4.05
2023-01-12T22:36:59.713Z,2.65
2023-01-12T22:39:47.566Z,3.42
2023-01-12T22:43:00.993Z,2.58
2023-01-12T22:45:50.865Z,4.25
2023-01-12T22:48:42.485Z,5.18
2023-01-12T22:51:31.528Z,3.38
2023-01-12T22:54:21.626Z,2.35
2023-01-12T22:57:19.710Z,3.83
2023-01-12T23:00:12.805Z,4.10
2023-01-12T23:03:01.395Z,4.45
2023-01-12T23:05:56.651Z,2.70
2023-01-12T23:08:53.188Z,2.83
2023-01-12T23:12:00.915Z,3.75
2023-01-12T23:15:15.361Z,2.92
2023-01-12T23:18:14.678Z,2.90
2023-01-12T23:21:47.893Z,3.15
2023-01-12T23:24:44.460Z,6.22
2023-01-12T23:27:50.901Z,2.83
2023-01-12T23:30:38.945Z,6.00
2023-01-12T23:33:32.467Z,6.30
2023-01-12T23:36:39.626Z,4.10
2023-01-12T23:39:27.710Z,1.63
2023-01-12T23:42:15.665Z,2.83
2023-01-12T23:45:06.648Z,2.60
2023-01-12T23:47:59.847Z,4.93
2023-01-12T23:50:50.979Z,7.30
2023-01-12T23:53:39.037Z,4.18
2023-01-12T23:56:32.182Z,5.00
2023-01-12T23:59:20.243Z,6.35
